Date,TemperatureHighF,TemperatureAvgF,TemperatureLowF,DewpointHighF,DewpointAvgF,DewpointLowF,HumidityHigh,HumidityAvg,HumidityLow,PressureMaxIn,PressureMinIn,WindSpeedMaxMPH,WindSpeedAvgMPH,GustSpeedMaxMPH,PrecipitationSumIn
2013-8-1,80,74,72,72,70,68,96,89,73,29.98,29.89,6,1,12,0.15
2013-8-2,90,77,67,71,69,65,95,78,51,30.01,29.90,3,0,6,0.00
2013-8-3,89,79,71,73,70,64,96,76,46,30.00,29.93,2,0,10,0.00
2013-8-4,90,78,70,71,68,63,90,72,53,30.00,29.91,4,0,7,0.00
2013-8-5,86,75,67,71,66,62,85,74,55,30.05,29.95,3,0,9,0.00
2013-8-6,82,75,69,74,70,66,96,85,74,30.03,29.93,3,0,13,1.20
2013-8-7,77,73,72,74,72,70,96,94,91,30.06,29.99,3,0,7,0.69
2013-8-8,83,76,72,75,72,71,97,88,71,30.05,29.99,4,0,10,0.00
2013-8-9,90,77,72,77,73,71,97,88,64,30.06,29.99,9,0,18,0.13
2013-8-10,90,78,72,78,73,68,97,86,67,30.08,30.03,4,0,20,0.08
2013-8-11,91,76,69,76,71,68,97,86,54,30.11,30.03,3,0,15,0.54
2013-8-12,93,78,70,78,72,69,97,85,54,30.07,29.93,3,0,10,0.17
2013-8-13,88,78,71,75,72,69,97,83,62,29.95,29.79,5,0,11,0.00
2013-8-14,82,73,70,70,67,62,90,80,64,30.04,29.84,3,0,5,0.00
2013-8-15,73,68,63,64,60,57,87,77,63,30.12,30.04,2,0,12,0.00
2013-8-16,73,66,61,63,60,58,93,84,70,30.15,30.07,4,0,7,0.24
2013-8-17,68,65,62,63,61,59,96,87,77,30.17,30.12,2,0,9,0.13
2013-8-18,75,68,64,70,66,63,97,93,81,30.22,30.14,1,0,3,0.28
2013-8-19,77,70,66,70,68,65,97,93,79,30.18,30.07,2,0,4,1.15
2013-8-20,81,72,66,72,69,65,97,91,74,30.18,30.10,1,0,4,0.01
2013-8-21,80,73,69,75,71,68,97,94,81,30.22,30.11,2,0,4,0.56
2013-8-22,88,75,68,74,70,67,98,87,55,30.15,30.02,4,0,12,0.28
2013-8-23,90,75,67,74,68,65,97,83,48,30.04,29.94,3,0,10,0.03
2013-8-24,83,72,64,67,63,60,95,75,51,30.26,30.04,3,0,13,0.00
2013-8-25,81,69,59,62,59,56,93,73,46,30.38,30.26,2,0,6,0.01
2013-8-26,85,69,58,64,60,56,96,76,46,30.32,30.15,0,0,4,0.00